Time;durP1;ratioP1;P1;durP2;ratioP2;P2;SDS_P1;SDS_P2;PMS_P1;PMS_P2;Temp;Humidity;BMP_temperature;BMP_pressure;BME280_temperature;BME280_humidity;BME280_pressure;Samples;Min_cycle;Max_cycle;Signal;HPM_P1;HPM_P2
2021/04/21 00:02:15;;;;;;;45.53;28.45;;;3.20;99.90;;;;;;5033506;28;20057;-79
2021/04/21 00:04:45;;;;;;;37.00;24.33;;;3.30;99.90;;;;;;5019554;28;20052;-79
2021/04/21 00:07:23;;;;;;;29.27;18.95;;;3.30;99.90;;;;;;5020836;28;20052;-79
2021/04/21 00:09:53;;;;;;;31.52;18.75;;;3.10;99.90;;;;;;5023621;28;20057;-79
2021/04/21 00:12:22;;;;;;;31.25;20.75;;;2.80;99.90;;;;;;5019734;28;20061;-79
2021/04/21 00:14:53;;;;;;;41.85;25.25;;;2.50;99.90;;;;;;5020048;28;20046;-77
2021/04/21 00:17:22;;;;;;;47.17;29.45;;;2.50;99.90;;;;;;5034903;28;20477;-77
2021/04/21 00:19:55;;;;;;;43.72;23.92;;;2.70;99.90;;;;;;5024760;28;20042;-77
2021/04/21 00:22:24;;;;;;;39.78;25.75;;;2.80;99.90;;;;;;5021048;28;20049;-77
2021/04/21 00:24:53;;;;;;;39.65;25.13;;;2.80;99.90;;;;;;5018207;28;20508;-77
2021/04/21 00:27:25;;;;;;;38.90;25.52;;;2.80;99.90;;;;;;5022267;28;20049;-79
2021/04/21 00:29:56;;;;;;;35.55;24.67;;;2.80;99.90;;;;;;5020484;28;20690;-79
2021/04/21 00:32:26;;;;;;;33.55;24.35;;;2.90;99.90;;;;;;5018893;28;20057;-79
2021/04/21 00:34:56;;;;;;;45.22;29.50;;;2.80;99.90;;;;;;5019281;28;20042;-79
2021/04/21 00:37:28;;;;;;;47.45;30.30;;;2.80;99.90;;;;;;5020632;28;20596;-79
2021/04/21 00:39:57;;;;;;;39.85;26.35;;;2.90;99.90;;;;;;5021579;28;20042;-79
2021/04/21 00:42:43;;;;;;;35.33;25.13;;;2.90;99.90;;;;;;5022878;28;20398;-79
2021/04/21 00:45:16;;;;;;;33.63;24.20;;;2.90;99.90;;;;;;5047650;28;20634;-79
2021/04/21 00:48:17;;;;;;;37.20;25.33;;;2.80;99.90;;;;;;5021978;28;20410;-79
2021/04/21 00:50:55;;;;;;;45.55;27.70;;;2.70;99.90;;;;;;5034208;28;20057;-79
2021/04/21 00:54:15;;;;;;;45.03;28.90;;;2.80;99.90;;;;;;5022320;28;20042;-79
2021/04/21 00:57:02;;;;;;;38.78;26.42;;;2.80;99.90;;;;;;4977468;28;20046;-85
2021/04/21 00:59:53;;;;;;;40.08;23.92;;;2.90;99.90;;;;;;4989430;28;20423;-79
2021/04/21 01:02:27;;;;;;;42.80;26.42;;;2.90;99.90;;;;;;5020797;28;20048;-79
2021/04/21 01:04:56;;;;;;;38.00;25.70;;;2.90;99.90;;;;;;5020895;28;20053;-79
2021/04/21 01:07:25;;;;;;;33.92;25.08;;;3.00;99.90;;;;;;5023588;28;20053;-79
2021/04/21 01:09:56;;;;;;;40.00;28.63;;;2.90;99.90;;;;;;5022694;28;20049;-79
2021/04/21 01:12:27;;;;;;;45.97;31.70;;;2.90;99.90;;;;;;5022856;28;20061;-79
2021/04/21 01:14:56;;;;;;;37.83;23.65;;;3.00;99.90;;;;;;5021912;28;20045;-80
2021/04/21 01:17:26;;;;;;;46.47;27.95;;;3.10;99.90;;;;;;5023088;28;20042;-79
2021/04/21 01:20:03;;;;;;;48.83;32.15;;;3.10;99.90;;;;;;5024013;28;20034;-77
2021/04/21 01:22:47;;;;;;;47.28;29.45;;;3.00;99.90;;;;;;5024051;28;20046;-77
2021/04/21 01:25:26;;;;;;;42.03;28.50;;;3.00;99.90;;;;;;5026500;28;20061;-77
2021/04/21 01:27:59;;;;;;;246.60;54.10;;;3.00;99.90;;;;;;5020954;28;20049;-77
2021/04/21 01:30:30;;;;;;;127.38;33.75;;;2.80;99.90;;;;;;5024089;28;20037;-77
2021/04/21 01:33:01;;;;;;;221.13;46.05;;;2.50;99.90;;;;;;5024939;28;20474;-77
2021/04/21 01:35:30;;;;;;;195.60;45.10;;;2.40;99.90;;;;;;5021336;28;20049;-77
2021/04/21 01:38:04;;;;;;;197.50;48.65;;;2.30;99.90;;;;;;5026657;28;20045;-77
2021/04/21 01:40:42;;;;;;;538.30;86.82;;;2.30;99.90;;;;;;5008639;28;20517;-77
2021/04/21 01:43:19;;;;;;;329.98;73.38;;;2.40;99.90;;;;;;5023278;28;20057;-77
2021/04/21 01:45:55;;;;;;;144.38;35.95;;;2.50;99.90;;;;;;5037737;28;20064;-77
2021/04/21 01:48:24;;;;;;;389.95;77.28;;;2.50;99.90;;;;;;5021876;28;20053;-77
2021/04/21 01:50:53;;;;;;;346.73;65.28;;;2.50;99.90;;;;;;5024460;28;20041;-77
2021/04/21 01:53:34;;;;;;;51.30;29.90;;;2.50;99.90;;;;;;5023247;28;20482;-77
2021/04/21 01:56:20;;;;;;;49.55;30.75;;;2.70;99.90;;;;;;5028817;28;20042;-77
2021/04/21 01:58:54;;;;;;;58.78;33.78;;;2.90;99.90;;;;;;5025641;28;20790;-77
2021/04/21 02:01:46;;;;;;;53.83;29.42;;;3.10;99.90;;;;;;5022828;28;20053;-77
2021/04/21 02:04:33;;;;;;;193.80;43.58;;;3.10;99.90;;;;;;5023181;28;20053;-77
2021/04/21 02:07:25;;;;;;;69.07;28.00;;;2.80;99.90;;;;;;5021706;28;20053;-77
2021/04/21 02:10:08;;;;;;;179.57;42.15;;;2.20;99.90;;;;;;5023605;28;20469;-77
2021/04/21 02:12:38;;;;;;;51.45;28.60;;;2.10;99.90;;;;;;5016361;28;20041;-77
2021/04/21 02:15:55;;;;;;;42.95;27.95;;;2.20;99.90;;;;;;5018489;28;20403;-77
2021/04/21 02:18:51;;;;;;;92.03;32.65;;;2.30;99.90;;;;;;4987764;28;20042;-77
2021/04/21 02:21:42;;;;;;;132.68;38.30;;;2.20;99.90;;;;;;5026805;28;20510;-77
2021/04/21 02:24:19;;;;;;;436.55;71.70;;;2.00;99.90;;;;;;5036701;28;20034;-77
2021/04/21 02:26:58;;;;;;;424.05;69.88;;;2.00;99.90;;;;;;5021966;28;20037;-77
2021/04/21 02:30:05;;;;;;;493.77;80.43;;;1.90;99.90;;;;;;5024803;28;20053;-77
2021/04/21 02:32:49;;;;;;;452.40;77.45;;;1.60;99.90;;;;;;5033383;28;20041;-77
2021/04/21 02:35:37;;;;;;;538.75;73.55;;;1.70;99.90;;;;;;5020683;28;20045;-77
2021/04/21 02:38:28;;;;;;;468.35;69.80;;;1.80;99.90;;;;;;5022364;28;20045;-77
2021/04/21 02:41:01;;;;;;;329.38;52.50;;;1.80;99.90;;;;;;5025993;28;20041;-80
2021/04/21 02:43:54;;;;;;;339.10;47.25;;;1.90;99.90;;;;;;5021626;28;20042;-80
2021/04/21 02:46:28;;;;;;;484.38;71.43;;;1.90;99.90;;;;;;5020494;28;20046;-80
2021/04/21 02:49:14;;;;;;;599.05;99.70;;;1.40;99.90;;;;;;5023064;28;20049;-80
2021/04/21 02:51:50;;;;;;;518.08;74.45;;;1.20;99.90;;;;;;5025162;28;20049;-80
2021/04/21 02:54:43;;;;;;;317.60;51.65;;;1.10;99.90;;;;;;5022482;28;20415;-80
2021/04/21 02:57:28;;;;;;;370.00;51.88;;;1.10;99.90;;;;;;5026800;28;20045;-80
2021/04/21 03:00:13;;;;;;;258.17;43.25;;;1.10;99.90;;;;;;5021262;28;20061;-80
2021/04/21 03:03:05;;;;;;;202.45;47.95;;;1.20;99.90;;;;;;5017924;28;20046;-80
2021/04/21 03:05:34;;;;;;;190.80;33.58;;;1.30;99.90;;;;;;5022297;28;20049;-80
2021/04/21 03:08:08;;;;;;;298.17;39.00;;;1.40;99.90;;;;;;5020721;28;20053;-80
2021/04/21 03:10:46;;;;;;;245.80;38.22;;;1.40;99.90;;;;;;5023161;28;20048;-80
2021/04/21 03:13:17;;;;;;;274.15;41.00;;;1.30;99.90;;;;;;5022390;28;20057;-79
2021/04/21 03:15:50;;;;;;;;;;;1.20;99.90;;;;;;5024056;28;20491;-80
2021/04/21 03:18:21;;;;;;;125.85;24.05;;;1.30;99.90;;;;;;5022042;28;20287;-79
2021/04/21 03:21:12;;;;;;;191.25;36.08;;;1.40;99.90;;;;;;5023920;28;20556;-79
2021/04/21 03:23:42;;;;;;;225.35;32.00;;;1.50;99.90;;;;;;5042422;28;20045;-79
2021/04/21 03:26:11;;;;;;;230.70;35.10;;;1.50;99.90;;;;;;5024420;28;20052;-79
2021/04/21 03:28:40;;;;;;;244.77;41.58;;;1.70;99.90;;;;;;5024808;28;20057;-79
2021/04/21 03:31:11;;;;;;;311.70;44.67;;;1.60;99.90;;;;;;5019464;28;20506;-80
2021/04/21 03:33:46;;;;;;;144.35;30.83;;;1.60;99.90;;;;;;5021315;28;20402;-80
2021/04/21 03:36:17;;;;;;;26.08;20.67;;;1.60;99.90;;;;;;5019608;28;20125;-80
2021/04/21 03:38:46;;;;;;;35.05;17.58;;;1.60;99.90;;;;;;5023122;28;20038;-80
2021/04/21 03:41:14;;;;;;;105.72;24.10;;;1.60;99.90;;;;;;5022212;28;20052;-79
2021/04/21 03:43:47;;;;;;;151.98;30.38;;;1.40;99.90;;;;;;5018987;28;20042;-79
2021/04/21 03:46:17;;;;;;;125.38;26.08;;;1.10;99.90;;;;;;5018995;28;20042;-79
2021/04/21 03:48:46;;;;;;;70.97;23.83;;;0.90;99.90;;;;;;5034872;28;20054;-79
2021/04/21 03:51:15;;;;;;;423.90;70.18;;;0.80;99.90;;;;;;5023565;28;20040;-79
2021/04/21 03:53:44;;;;;;;171.80;37.58;;;0.90;99.90;;;;;;5019079;28;20050;-79
2021/04/21 03:56:16;;;;;;;181.85;36.92;;;0.70;99.90;;;;;;5017488;28;21036;-79
2021/04/21 03:58:47;;;;;;;329.05;49.28;;;0.80;99.90;;;;;;5019967;28;20061;-79
2021/04/21 04:01:19;;;;;;;284.75;43.53;;;0.80;99.90;;;;;;5018920;28;20499;-79
2021/04/21 04:04:01;;;;;;;356.45;50.40;;;0.70;99.90;;;;;;5019417;28;20041;-79
2021/04/21 04:06:30;;;;;;;204.57;36.42;;;0.90;99.90;;;;;;5020015;28;20045;-79
2021/04/21 04:09:03;;;;;;;142.45;27.98;;;0.90;99.90;;;;;;5021178;28;20053;-79
2021/04/21 04:11:39;;;;;;;350.83;47.53;;;1.00;99.90;;;;;;5021322;28;20044;-79
2021/04/21 04:14:14;;;;;;;142.43;28.02;;;1.20;99.90;;;;;;5018760;28;20426;-79
2021/04/21 04:16:44;;;;;;;206.40;31.67;;;1.20;99.90;;;;;;5020655;28;20045;-79
2021/04/21 04:19:13;;;;;;;219.10;39.97;;;1.20;99.90;;;;;;5022394;28;20385;-79
2021/04/21 04:21:45;;;;;;;243.23;35.47;;;1.10;99.90;;;;;;5023382;28;20058;-79
2021/04/21 04:24:16;;;;;;;294.77;37.50;;;1.00;99.90;;;;;;5018060;28;20418;-79
2021/04/21 04:26:46;;;;;;;;;;;0.80;99.90;;;;;;5020929;28;20042;-79
2021/04/21 04:29:13;;;;;;;139.93;24.75;;;0.90;99.90;;;;;;5021230;28;19929;-79
2021/04/21 04:31:41;;;;;;;117.75;24.58;;;0.90;99.90;;;;;;5021071;28;20042;-79
2021/04/21 04:34:10;;;;;;;201.02;28.10;;;1.10;99.90;;;;;;5018407;28;20050;-79
2021/04/21 04:36:41;;;;;;;109.30;24.88;;;1.10;99.90;;;;;;5018781;28;20479;-79
2021/04/21 04:39:09;;;;;;;156.95;25.80;;;1.20;99.90;;;;;;5018941;28;20384;-79
2021/04/21 04:41:37;;;;;;;107.65;22.40;;;1.20;99.90;;;;;;5021132;28;20478;-79
2021/04/21 04:44:06;;;;;;;60.47;20.33;;;1.30;99.90;;;;;;5032059;28;20042;-79
2021/04/21 04:46:42;;;;;;;44.88;20.30;;;1.30;99.90;;;;;;5015941;28;20057;-79
2021/04/21 04:49:17;;;;;;;21.15;17.55;;;1.50;99.90;;;;;;5016504;28;20049;-86
2021/04/21 04:51:46;;;;;;;42.70;20.58;;;1.30;99.90;;;;;;5017525;28;20377;-78
2021/04/21 04:54:15;;;;;;;48.63;18.63;;;1.30;99.90;;;;;;5015698;28;20068;-79
2021/04/21 04:56:45;;;;;;;58.63;19.20;;;1.20;99.90;;;;;;5035638;28;20053;-78
2021/04/21 04:59:13;;;;;;;49.30;18.23;;;1.20;99.90;;;;;;5018920;28;20050;-79
2021/04/21 05:01:51;;;;;;;64.43;22.95;;;1.20;99.90;;;;;;5017525;28;20479;-79
2021/04/21 05:04:25;;;;;;;121.97;27.85;;;1.30;99.90;;;;;;5018259;28;20042;-79
2021/04/21 05:07:23;;;;;;;177.55;34.08;;;1.50;99.90;;;;;;5018043;28;20045;-79
2021/04/21 05:09:56;;;;;;;55.50;23.27;;;1.20;99.90;;;;;;5017892;28;20498;-79
2021/04/21 05:12:27;;;;;;;76.30;22.30;;;1.20;99.90;;;;;;5018453;28;20042;-78
2021/04/21 05:14:55;;;;;;;63.13;22.75;;;1.30;99.90;;;;;;5017450;28;20064;-79
2021/04/21 05:17:47;;;;;;;120.60;19.58;;;1.50;99.90;;;;;;5016496;28;20050;-80
2021/04/21 05:20:25;;;;;;;25.65;19.08;;;1.70;99.90;;;;;;5023903;28;20048;-78
2021/04/21 05:23:17;;;;;;;19.90;15.90;;;2.00;99.90;;;;;;5015729;28;20050;-79
2021/04/21 05:26:04;;;;;;;22.23;16.55;;;2.50;99.90;;;;;;5020899;28;20049;-79
2021/04/21 05:29:00;;;;;;;19.75;17.08;;;3.00;99.90;;;;;;5008711;28;20051;-79
2021/04/21 05:31:30;;;;;;;20.58;15.85;;;3.10;99.90;;;;;;5005707;28;20057;-79
2021/04/21 05:34:09;;;;;;;20.75;17.00;;;3.00;99.90;;;;;;5002068;28;20050;-79
2021/04/21 05:36:58;;;;;;;18.10;14.43;;;3.20;99.90;;;;;;5014467;28;20049;-80
2021/04/21 05:39:47;;;;;;;17.48;15.43;;;3.60;99.90;;;;;;5001004;28;20130;-79
2021/04/21 05:42:32;;;;;;;17.52;14.30;;;4.00;99.90;;;;;;5000964;28;20076;-78
2021/04/21 05:45:03;;;;;;;17.83;15.90;;;4.40;99.90;;;;;;5002211;28;20400;-80
2021/04/21 05:47:55;;;;;;;17.98;15.02;;;4.90;99.90;;;;;;5016604;28;20057;-79
2021/04/21 05:50:56;;;;;;;18.20;13.80;;;5.40;99.90;;;;;;5017393;28;20052;-82
2021/04/21 05:54:09;;;;;;;19.73;14.63;;;6.10;99.90;;;;;;5001189;28;20050;-82
2021/04/21 05:56:49;;;;;;;14.88;11.98;;;6.70;99.90;;;;;;5018894;28;20060;-83
2021/04/21 05:59:41;;;;;;;13.07;11.55;;;7.30;99.10;;;;;;5002647;28;20057;-81
2021/04/21 06:02:09;;;;;;;10.80;9.60;;;7.90;97.10;;;;;;5004931;28;20069;-81
2021/04/21 06:04:37;;;;;;;12.07;9.35;;;8.30;94.30;;;;;;5006810;28;20057;-81
2021/04/21 06:07:09;;;;;;;8.85;7.93;;;8.50;94.70;;;;;;5031081;28;20045;-82
2021/04/21 06:09:37;;;;;;;11.02;8.30;;;9.10;93.10;;;;;;5024557;28;20049;-83
2021/04/21 06:12:14;;;;;;;10.52;8.18;;;9.50;92.10;;;;;;5012220;28;20613;-80
2021/04/21 06:14:43;;;;;;;11.40;10.13;;;9.40;92.30;;;;;;5005078;28;20475;-81
2021/04/21 06:17:12;;;;;;;8.55;7.13;;;9.40;93.20;;;;;;5018638;28;20053;-81
2021/04/21 06:19:43;;;;;;;9.43;7.97;;;9.70;91.80;;;;;;5018744;28;20046;-82
2021/04/21 06:22:30;;;;;;;9.68;7.32;;;9.80;90.10;;;;;;5024802;28;20045;-81
2021/04/21 06:25:14;;;;;;;9.70;7.60;;;10.00;90.30;;;;;;5002908;28;20519;-81
2021/04/21 06:27:42;;;;;;;14.48;7.70;;;10.50;90.20;;;;;;5003305;28;20060;-81
2021/04/21 06:30:11;;;;;;;9.85;7.03;;;10.80;87.90;;;;;;4999751;28;20050;-83
2021/04/21 06:32:38;;;;;;;9.23;8.15;;;11.20;84.10;;;;;;5002423;28;20053;-81
2021/04/21 06:35:14;;;;;;;12.63;8.20;;;11.50;84.20;;;;;;4999759;28;20038;-81
2021/04/21 06:37:46;;;;;;;9.90;8.88;;;11.90;82.50;;;;;;5005508;28;20054;-81
2021/04/21 06:40:14;;;;;;;8.80;7.68;;;11.90;83.50;;;;;;4998066;28;20053;-81
2021/04/21 06:42:45;;;;;;;9.38;7.65;;;11.90;81.70;;;;;;5013072;28;20058;-82
2021/04/21 06:45:14;;;;;;;8.82;8.00;;;12.40;82.60;;;;;;5002334;28;20088;-82
2021/04/21 06:47:43;;;;;;;8.25;7.43;;;13.10;78.70;;;;;;5001725;28;20046;-82
2021/04/21 06:50:13;;;;;;;8.38;7.43;;;13.60;74.80;;;;;;5003808;28;20042;-84
2021/04/21 06:52:44;;;;;;;7.22;6.53;;;13.90;73.90;;;;;;5001997;28;20110;-83
2021/04/21 06:55:21;;;;;;;9.75;7.07;;;14.10;74.40;;;;;;4998336;28;20037;-86
2021/04/21 06:58:14;;;;;;;8.43;7.57;;;14.20;71.80;;;;;;5002980;28;20526;-82
2021/04/21 07:00:43;;;;;;;8.57;6.38;;;14.70;71.10;;;;;;4997125;28;20066;-82
2021/04/21 07:03:17;;;;;;;9.98;8.55;;;14.60;70.30;;;;;;5015268;28;20056;-83
2021/04/21 07:05:49;;;;;;;9.90;7.78;;;15.20;68.40;;;;;;5019638;28;20058;-83
2021/04/21 07:08:28;;;;;;;8.93;8.03;;;15.80;68.00;;;;;;5024037;28;20041;-82
2021/04/21 07:11:14;;;;;;;7.00;6.28;;;16.30;62.20;;;;;;5011312;28;20046;-82
2021/04/21 07:13:46;;;;;;;9.43;7.38;;;15.40;66.00;;;;;;5028829;28;20038;-82
2021/04/21 07:16:28;;;;;;;10.68;7.65;;;15.10;68.00;;;;;;4993866;28;20050;-82
2021/04/21 07:19:01;;;;;;;8.35;7.55;;;15.20;67.30;;;;;;5013145;28;20057;-82
2021/04/21 07:21:33;;;;;;;8.70;7.80;;;16.30;64.50;;;;;;5030398;28;20048;-81
2021/04/21 07:24:04;;;;;;;9.50;7.75;;;16.60;60.40;;;;;;5021032;28;20518;-82
2021/04/21 07:26:37;;;;;;;9.32;8.32;;;16.50;62.40;;;;;;5022411;28;20042;-81
2021/04/21 07:29:07;;;;;;;8.57;7.05;;;16.50;62.50;;;;;;5019543;28;20505;-81
2021/04/21 07:31:40;;;;;;;7.30;6.15;;;16.80;60.00;;;;;;5018444;28;20064;-82
2021/04/21 07:34:34;;;;;;;6.97;6.28;;;16.30;61.60;;;;;;5023394;28;20042;-83
2021/04/21 07:37:03;;;;;;;9.43;6.80;;;17.10;57.70;;;;;;5021842;28;20046;-83
2021/04/21 07:39:34;;;;;;;9.30;6.50;;;17.60;56.40;;;;;;5025207;28;20414;-83
2021/04/21 07:42:02;;;;;;;6.82;6.13;;;17.80;55.10;;;;;;5021083;28;20471;-82
2021/04/21 07:44:35;;;;;;;7.20;6.47;;;17.00;58.70;;;;;;5017918;28;20498;-83
2021/04/21 07:47:06;;;;;;;7.43;6.63;;;16.90;61.20;;;;;;5020853;28;20056;-82
2021/04/21 07:49:39;;;;;;;7.75;6.70;;;17.50;61.20;;;;;;5019895;28;20056;-82
2021/04/21 07:52:07;;;;;;;9.60;6.35;;;17.50;57.60;;;;;;5020704;28;20052;-82
2021/04/21 07:54:36;;;;;;;8.15;6.18;;;18.10;56.60;;;;;;5020938;28;20049;-82
2021/04/21 07:57:05;;;;;;;8.00;6.82;;;18.40;55.70;;;;;;5021186;28;20513;-82
2021/04/21 07:59:34;;;;;;;7.50;5.88;;;18.40;53.40;;;;;;5022434;28;20053;-81
2021/04/21 08:02:12;;;;;;;7.43;6.68;;;18.10;54.80;;;;;;5020292;28;20049;-82
2021/04/21 08:04:57;;;;;;;8.25;7.47;;;17.60;58.10;;;;;;5019551;28;20429;-82
2021/04/21 08:07:35;;;;;;;7.47;6.43;;;17.40;55.50;;;;;;5019428;28;20809;-81
2021/04/21 08:10:21;;;;;;;7.55;6.85;;;16.30;63.00;;;;;;5020245;28;20057;-81
2021/04/21 08:12:50;;;;;;;6.45;5.85;;;17.00;60.60;;;;;;5021387;28;20076;-82
2021/04/21 08:15:18;;;;;;;6.55;5.75;;;18.10;57.50;;;;;;5020730;28;20036;-82
2021/04/21 08:17:54;;;;;;;6.60;5.97;;;17.30;58.80;;;;;;5021781;28;20428;-82
2021/04/21 08:20:23;;;;;;;7.68;5.93;;;17.40;56.90;;;;;;5021282;28;20053;-81
2021/04/21 08:22:59;;;;;;;7.40;6.55;;;18.00;55.20;;;;;;5021131;28;20049;-82
2021/04/21 08:25:26;;;;;;;7.15;6.40;;;19.40;52.50;;;;;;5000966;28;20050;-82
2021/04/21 08:27:59;;;;;;;6.78;6.10;;;20.40;50.90;;;;;;5016331;28;20050;-82
2021/04/21 08:30:32;;;;;;;7.65;6.15;;;20.90;46.70;;;;;;5041316;28;20038;-82
2021/04/21 08:33:00;;;;;;;6.88;6.18;;;22.20;42.30;;;;;;5017838;28;20061;-82
2021/04/21 08:35:28;;;;;;;7.45;6.22;;;22.30;42.20;;;;;;5017202;28;20057;-82
2021/04/21 08:37:56;;;;;;;7.95;6.68;;;22.20;40.70;;;;;;5018329;28;20734;-82
2021/04/21 08:40:26;;;;;;;6.03;5.13;;;22.20;40.30;;;;;;5016975;28;20053;-82
2021/04/21 08:42:57;;;;;;;5.40;4.90;;;21.40;39.30;;;;;;5018684;28;20042;-85
2021/04/21 08:45:25;;;;;;;7.30;5.97;;;21.80;40.80;;;;;;5022030;28;20075;-82
2021/04/21 08:47:55;;;;;;;6.30;5.70;;;22.70;36.70;;;;;;5019893;28;20041;-82
2021/04/21 08:50:25;;;;;;;6.22;5.63;;;22.00;39.90;;;;;;5025937;28;20049;-82
2021/04/21 08:53:02;;;;;;;8.35;7.15;;;20.20;42.10;;;;;;5018967;28;20058;-82
2021/04/21 08:55:29;;;;;;;7.50;6.68;;;18.40;51.40;;;;;;5018455;28;20517;-83
2021/04/21 08:57:57;;;;;;;8.75;6.45;;;18.50;46.20;;;;;;5020336;28;20072;-83
2021/04/21 09:00:24;;;;;;;7.35;6.53;;;18.10;52.00;;;;;;5021389;28;20050;-83
2021/04/21 09:02:51;;;;;;;10.65;7.63;;;17.50;53.70;;;;;;5007295;28;20037;-82
2021/04/21 09:05:22;;;;;;;10.52;8.77;;;16.70;54.50;;;;;;5022235;28;20049;-82
2021/04/21 09:07:49;;;;;;;13.45;8.93;;;16.40;57.50;;;;;;5021543;28;20038;-83
2021/04/21 09:10:19;;;;;;;11.82;10.13;;;16.60;55.00;;;;;;5024959;28;20078;-82
2021/04/21 09:12:47;;;;;;;20.30;13.10;;;16.90;58.30;;;;;;5021760;28;20044;-83
2021/04/21 09:15:17;;;;;;;12.75;11.30;;;16.30;55.10;;;;;;5023900;28;20052;-84
2021/04/21 09:17:55;;;;;;;18.15;12.23;;;15.50;57.40;;;;;;5037871;28;20037;-82
2021/04/21 09:20:25;;;;;;;13.27;11.23;;;15.10;59.90;;;;;;5028632;28;20041;-82
2021/04/21 09:23:19;;;;;;;12.05;10.43;;;15.20;59.70;;;;;;5021720;28;20045;-83
2021/04/21 09:25:51;;;;;;;9.30;8.35;;;15.30;52.70;;;;;;5016258;28;20037;-83
2021/04/21 09:28:20;;;;;;;9.68;8.40;;;15.30;57.30;;;;;;5015617;28;20046;-85
2021/04/21 09:30:56;;;;;;;14.30;10.05;;;15.30;55.00;;;;;;5003495;28;20611;-83
2021/04/21 09:33:29;;;;;;;11.57;9.73;;;14.90;59.10;;;;;;5005184;28;20049;-82
2021/04/21 09:35:58;;;;;;;11.93;10.52;;;15.00;61.80;;;;;;5002961;28;20423;-81
2021/04/21 09:38:27;;;;;;;14.05;10.95;;;14.90;57.90;;;;;;5010304;28;20048;-82
2021/04/21 09:41:02;;;;;;;12.17;9.33;;;14.80;60.20;;;;;;5002571;28;20550;-82
2021/04/21 09:43:34;;;;;;;10.32;8.90;;;14.70;64.10;;;;;;5006363;28;20522;-81
2021/04/21 09:46:18;;;;;;;12.20;8.55;;;14.80;64.50;;;;;;5001220;28;20049;-83
2021/04/21 09:48:47;;;;;;;10.07;8.40;;;14.90;60.30;;;;;;5012878;28;20037;-82
2021/04/21 09:51:21;;;;;;;10.77;9.50;;;15.30;65.80;;;;;;5014165;28;20057;-83
2021/04/21 09:53:54;;;;;;;16.55;10.40;;;15.40;64.80;;;;;;5005554;28;20387;-82
2021/04/21 09:56:36;;;;;;;10.63;9.00;;;15.50;62.40;;;;;;5000967;28;20039;-82
2021/04/21 09:59:04;;;;;;;11.65;9.88;;;15.40;63.90;;;;;;5016735;28;20072;-82
2021/04/21 10:01:39;;;;;;;10.60;8.93;;;15.20;52.50;;;;;;5000905;28;20062;-82
2021/04/21 10:04:11;;;;;;;14.45;8.80;;;14.70;58.70;;;;;;5015321;28;20052;-82
2021/04/21 10:06:42;;;;;;;12.93;9.93;;;14.60;61.40;;;;;;5027647;28;20762;-82
2021/04/21 10:09:24;;;;;;;10.75;9.65;;;15.10;57.50;;;;;;5030454;28;20064;-83
2021/04/21 10:11:52;;;;;;;11.15;9.52;;;14.70;59.30;;;;;;5021411;28;20052;-81
2021/04/21 10:14:24;;;;;;;12.00;8.93;;;14.50;63.60;;;;;;5027761;28;20042;-82
2021/04/21 10:16:52;;;;;;;9.43;7.72;;;14.70;61.90;;;;;;5021765;28;20046;-85
2021/04/21 10:19:25;;;;;;;10.48;9.48;;;14.80;58.20;;;;;;5005945;28;20052;-85
2021/04/21 10:21:52;;;;;;;12.35;9.75;;;15.00;60.80;;;;;;5025991;28;20045;-84
2021/04/21 10:24:20;;;;;;;12.60;8.73;;;15.40;58.10;;;;;;5022845;28;20076;-85
2021/04/21 10:26:47;;;;;;;10.15;8.75;;;15.50;58.70;;;;;;5020147;28;20040;-83
2021/04/21 10:29:15;;;;;;;10.68;8.25;;;15.20;56.20;;;;;;5020542;28;20053;-84
2021/04/21 10:31:43;;;;;;;10.95;9.75;;;15.20;64.30;;;;;;5028712;28;20037;-84
2021/04/21 10:34:11;;;;;;;11.93;9.55;;;15.00;57.80;;;;;;5024215;28;20045;-85
2021/04/21 10:36:41;;;;;;;12.10;9.63;;;15.30;60.80;;;;;;5032063;28;20045;-85
2021/04/21 10:39:09;;;;;;;11.57;9.23;;;15.70;63.50;;;;;;4985433;28;20411;-83
2021/04/21 10:41:43;;;;;;;13.13;10.63;;;16.00;61.10;;;;;;5002608;28;20396;-82
2021/04/21 10:44:23;;;;;;;13.65;9.45;;;16.00;59.00;;;;;;5000243;28;20057;-84
2021/04/21 10:47:00;;;;;;;11.18;8.25;;;16.10;58.40;;;;;;5009849;28;20041;-85
2021/04/21 10:49:52;;;;;;;9.88;8.38;;;16.50;55.70;;;;;;4993014;28;20728;-83
2021/04/21 10:52:23;;;;;;;10.02;8.70;;;16.30;53.90;;;;;;5011343;28;20065;-83
2021/04/21 10:54:56;;;;;;;11.35;9.15;;;15.90;59.90;;;;;;5009250;28;20041;-82
2021/04/21 10:57:26;;;;;;;12.30;8.73;;;15.60;61.60;;;;;;5006596;28;20050;-82
2021/04/21 11:00:12;;;;;;;14.43;9.00;;;15.40;56.40;;;;;;5024822;28;20411;-82
2021/04/21 11:02:40;;;;;;;9.27;8.32;;;15.20;55.60;;;;;;5016607;28;20038;-82
2021/04/21 11:05:14;;;;;;;10.00;8.35;;;14.90;56.50;;;;;;5018969;28;20474;-83
2021/04/21 11:07:46;;;;;;;9.82;8.70;;;14.80;57.30;;;;;;5022147;28;20104;-84
2021/04/21 11:10:32;;;;;;;10.43;8.25;;;14.40;58.70;;;;;;5020692;28;20045;-84
2021/04/21 11:13:00;;;;;;;11.07;9.88;;;14.20;59.30;;;;;;5020615;28;20049;-84
2021/04/21 11:15:39;;;;;;;9.20;8.25;;;14.00;60.90;;;;;;5019120;28;20053;-83
2021/04/21 11:18:13;;;;;;;8.60;7.15;;;14.10;59.90;;;;;;5021289;28;20045;-84
2021/04/21 11:20:46;;;;;;;11.25;7.38;;;14.30;60.30;;;;;;5002504;28;20045;-83
2021/04/21 11:23:52;;;;;;;9.50;7.40;;;14.70;63.80;;;;;;5018852;28;20050;-82
2021/04/21 11:26:26;;;;;;;10.07;8.07;;;15.30;56.90;;;;;;5038230;28;20046;-82
2021/04/21 11:29:12;;;;;;;9.45;8.45;;;15.20;55.90;;;;;;5019420;28;20042;-81
2021/04/21 11:31:43;;;;;;;11.00;8.00;;;15.10;56.20;;;;;;5028497;28;20049;-85
2021/04/21 11:34:16;;;;;;;13.27;7.53;;;14.90;58.30;;;;;;5021626;28;20045;-81
2021/04/21 11:36:54;;;;;;;11.38;7.00;;;14.90;55.80;;;;;;5029936;28;20046;-83
2021/04/21 11:39:59;;;;;;;11.85;8.15;;;14.80;58.80;;;;;;5025638;28;20411;-82
2021/04/21 11:42:44;;;;;;;7.35;6.28;;;14.50;55.90;;;;;;5033736;28;20041;-82
2021/04/21 11:45:25;;;;;;;10.95;7.53;;;14.30;57.40;;;;;;5020040;28;20053;-82
2021/04/21 11:48:06;;;;;;;;;;;14.20;57.60;;;;;;5018746;28;20042;-82
2021/04/21 11:50:42;;;;;;;9.82;7.72;;;14.30;60.50;;;;;;5020065;28;19925;-83
2021/04/21 11:53:12;;;;;;;11.20;7.88;;;14.10;58.20;;;;;;5019759;28;20088;-82
2021/04/21 11:55:52;;;;;;;9.40;8.25;;;14.10;60.40;;;;;;5019989;28;20050;-83
2021/04/21 11:58:31;;;;;;;11.00;7.10;;;14.00;56.90;;;;;;5019497;28;20048;-83
2021/04/21 12:01:00;;;;;;;8.48;7.10;;;14.10;57.70;;;;;;5018347;28;20045;-84
2021/04/21 12:03:39;;;;;;;8.73;7.70;;;14.30;66.40;;;;;;5001910;28;20061;-84
2021/04/21 12:06:11;;;;;;;15.10;7.60;;;15.00;58.40;;;;;;5021727;28;20060;-82
2021/04/21 12:08:41;;;;;;;;;;;15.50;58.20;;;;;;5018203;28;20049;-83
2021/04/21 12:11:10;;;;;;;8.30;5.82;;;15.80;53.90;;;;;;5003548;28;19947;-83
2021/04/21 12:13:40;;;;;;;8.25;6.28;;;16.00;49.00;;;;;;5000819;28;20034;-83
2021/04/21 12:16:14;;;;;;;8.00;6.90;;;15.70;50.40;;;;;;5040816;28;20033;-81
2021/04/21 12:18:49;;;;;;;10.27;7.22;;;15.70;50.80;;;;;;5027356;28;20044;-79
2021/04/21 12:21:17;;;;;;;8.40;7.15;;;15.60;52.00;;;;;;5031051;28;20053;-81
2021/04/21 12:23:53;;;;;;;7.18;5.72;;;15.50;52.00;;;;;;5020838;28;20034;-81
2021/04/21 12:26:24;;;;;;;8.35;5.93;;;15.30;52.80;;;;;;5020857;28;20403;-80
2021/04/21 12:29:09;;;;;;;;;;;15.40;50.10;;;;;;5023015;28;20050;-80
2021/04/21 12:31:37;;;;;;;7.30;6.53;;;15.60;51.00;;;;;;5020101;28;19949;-78
2021/04/21 12:34:11;;;;;;;8.23;7.18;;;15.90;55.20;;;;;;5021786;28;20053;-84
2021/04/21 12:36:39;;;;;;;8.20;7.28;;;16.10;50.70;;;;;;5038563;28;20041;-83
2021/04/21 12:39:13;;;;;;;12.38;7.18;;;16.20;65.10;;;;;;5022856;28;20053;-83
2021/04/21 12:41:46;;;;;;;7.65;6.22;;;16.50;55.90;;;;;;5037703;28;20045;-83
2021/04/21 12:44:26;;;;;;;8.90;7.25;;;16.50;53.90;;;;;;5024788;28;20526;-82
2021/04/21 12:47:01;;;;;;;8.93;7.07;;;16.70;55.80;;;;;;5039185;28;20045;-82
2021/04/21 12:49:42;;;;;;;8.15;6.53;;;16.50;55.20;;;;;;5022115;28;20774;-82
2021/04/21 12:52:28;;;;;;;9.32;8.32;;;16.40;60.10;;;;;;4987371;28;20034;-83
2021/04/21 12:54:56;;;;;;;7.00;5.47;;;16.70;52.10;;;;;;4995090;28;20046;-83
2021/04/21 12:57:24;;;;;;;8.65;6.70;;;16.80;47.30;;;;;;5005616;28;20049;-82
2021/04/21 12:59:58;;;;;;;7.93;6.18;;;16.90;60.50;;;;;;4985433;28;20064;-82
2021/04/21 13:02:50;;;;;;;8.00;6.35;;;17.10;54.80;;;;;;4993420;28;20085;-83
2021/04/21 13:05:39;;;;;;;7.30;6.50;;;17.00;55.30;;;;;;5003464;28;20050;-83
2021/04/21 13:08:26;;;;;;;7.68;6.95;;;17.00;52.10;;;;;;5002781;28;20034;-83
2021/04/21 13:10:58;;;;;;;10.18;8.23;;;16.80;49.20;;;;;;5005704;28;20038;-82
2021/04/21 13:13:30;;;;;;;9.98;7.80;;;16.00;54.90;;;;;;5012369;28;20415;-83
2021/04/21 13:16:00;;;;;;;8.82;6.95;;;15.30;55.10;;;;;;4984391;28;20042;-82
2021/04/21 13:18:37;;;;;;;6.95;6.07;;;15.50;54.80;;;;;;5019706;28;20046;-82
2021/04/21 13:21:12;;;;;;;9.85;7.70;;;15.80;59.10;;;;;;5005459;28;20046;-82
2021/04/21 13:23:42;;;;;;;7.75;6.57;;;15.80;52.20;;;;;;5002826;28;20125;-83